createdAt,value
2018-02-13T00:00:50.942Z,0
2018-02-13T00:01:51.506Z,0
2018-02-13T00:02:52.070Z,0
2018-02-13T00:03:52.637Z,0
2018-02-13T00:04:53.205Z,0
2018-02-13T00:05:53.783Z,0
2018-02-13T00:06:54.347Z,0
2018-02-13T00:07:54.903Z,0
2018-02-13T00:08:55.466Z,0
2018-02-13T00:09:56.031Z,0
2018-02-13T00:10:56.596Z,0
2018-02-13T00:11:57.163Z,0
2018-02-13T00:12:57.727Z,0
2018-02-13T00:13:58.293Z,0
2018-02-13T00:14:58.859Z,0
2018-02-13T00:15:59.426Z,0
2018-02-13T00:16:59.988Z,0
2018-02-13T00:18:00.554Z,0
2018-02-13T00:19:01.121Z,0
2018-02-13T00:20:01.698Z,0
2018-02-13T00:21:02.268Z,0
2018-02-13T00:22:02.835Z,0
2018-02-13T00:23:03.399Z,0
2018-02-13T00:24:04.064Z,0
2018-02-13T00:25:04.629Z,0
2018-02-13T00:26:05.195Z,0
2018-02-13T00:27:05.760Z,0
2018-02-13T00:28:06.324Z,0
2018-02-13T00:29:06.890Z,0
2018-02-13T00:30:07.457Z,0
2018-02-13T00:31:08.021Z,0
2018-02-13T00:32:08.588Z,0
2018-02-13T00:33:09.154Z,0
2018-02-13T00:34:09.719Z,0
2018-02-13T00:35:10.285Z,0
2018-02-13T00:36:10.865Z,0
2018-02-13T00:37:11.430Z,0
2018-02-13T00:38:11.998Z,0
2018-02-13T00:39:12.562Z,0
2018-02-13T00:40:13.129Z,0
2018-02-13T00:41:13.709Z,0
2018-02-13T00:42:14.274Z,0
2018-02-13T00:43:14.838Z,0
2018-02-13T00:44:15.417Z,0
2018-02-13T00:45:15.982Z,0
2018-02-13T00:46:16.548Z,0
2018-02-13T00:47:17.113Z,0
2018-02-13T00:48:17.680Z,0
2018-02-13T00:49:18.258Z,0
2018-02-13T00:50:18.825Z,0
2018-02-13T00:51:19.400Z,0
2018-02-13T00:52:19.967Z,0
2018-02-13T00:53:20.546Z,0
2018-02-13T00:54:21.111Z,0
2018-02-13T00:55:21.677Z,0
2018-02-13T00:56:22.248Z,0
2018-02-13T00:57:22.811Z,0
2018-02-13T00:58:23.377Z,0
2018-02-13T00:59:23.941Z,0
2018-02-13T01:00:24.505Z,0
2018-02-13T01:01:25.069Z,0
2018-02-13T01:02:25.635Z,0
2018-02-13T01:03:26.200Z,0
2018-02-13T01:04:26.766Z,0
2018-02-13T01:05:27.347Z,0
2018-02-13T01:06:27.914Z,0
2018-02-13T01:07:28.527Z,0
2018-02-13T01:08:29.044Z,0
2018-02-13T01:09:29.608Z,0
2018-02-13T01:10:30.172Z,0
2018-02-13T01:11:30.738Z,0
2018-02-13T01:12:31.305Z,0
2018-02-13T01:13:31.875Z,0
2018-02-13T01:14:32.449Z,0
2018-02-13T01:15:33.016Z,0
2018-02-13T01:16:33.582Z,0
2018-02-13T01:17:34.146Z,0
2018-02-13T01:18:34.724Z,0
2018-02-13T01:19:35.289Z,0
2018-02-13T01:20:35.869Z,0
2018-02-13T01:21:36.433Z,0
2018-02-13T01:22:37.001Z,0
2018-02-13T01:23:37.571Z,0
2018-02-13T01:24:38.131Z,0
2018-02-13T01:25:38.696Z,0
2018-02-13T01:26:39.261Z,0
2018-02-13T01:27:39.827Z,0
2018-02-13T01:28:40.391Z,0
2018-02-13T01:29:40.960Z,0
2018-02-13T01:30:41.521Z,0
2018-02-13T01:31:42.086Z,0
2018-02-13T01:32:42.652Z,0
2018-02-13T01:33:43.217Z,0
2018-02-13T01:34:43.783Z,0
2018-02-13T01:35:44.347Z,0
2018-02-13T01:36:44.912Z,0
2018-02-13T01:37:45.477Z,0
2018-02-13T01:38:46.042Z,0
2018-02-13T01:39:46.610Z,0
2018-02-13T01:40:47.176Z,0
2018-02-13T01:41:47.742Z,0
2018-02-13T01:42:48.306Z,0
2018-02-13T01:43:48.874Z,0
2018-02-13T01:44:49.449Z,0
2018-02-13T01:45:50.013Z,0
2018-02-13T01:46:50.576Z,0
2018-02-13T01:47:51.140Z,0
2018-02-13T01:48:51.704Z,0
2018-02-13T01:49:52.269Z,0
2018-02-13T01:50:52.834Z,0
2018-02-13T01:51:53.401Z,0
2018-02-13T01:52:53.965Z,0
2018-02-13T01:53:54.532Z,0
2018-02-13T01:54:55.097Z,0
2018-02-13T01:55:55.662Z,0
2018-02-13T01:56:56.228Z,0
2018-02-13T01:57:56.794Z,0
2018-02-13T01:58:57.360Z,0
2018-02-13T01:59:57.926Z,0
2018-02-13T02:00:58.490Z,0
2018-02-13T02:01:59.055Z,0
2018-02-13T02:02:59.634Z,0
2018-02-13T02:04:00.213Z,0
2018-02-13T02:05:00.780Z,0
2018-02-13T02:06:01.344Z,0
2018-02-13T02:07:01.907Z,0
2018-02-13T02:08:02.471Z,0
2018-02-13T02:09:03.035Z,0
2018-02-13T02:10:03.602Z,0
2018-02-13T02:11:04.166Z,0
2018-02-13T02:12:04.733Z,0
2018-02-13T02:13:05.296Z,0
2018-02-13T02:14:05.861Z,0
2018-02-13T02:15:06.430Z,0
2018-02-13T02:16:06.991Z,0
2018-02-13T02:17:07.557Z,0
2018-02-13T02:18:08.136Z,0
2018-02-13T02:19:08.702Z,0
2018-02-13T02:20:09.269Z,0
2018-02-13T02:21:09.834Z,0
2018-02-13T02:22:10.397Z,0
2018-02-13T02:23:10.965Z,0
2018-02-13T02:24:11.542Z,0
2018-02-13T02:25:12.107Z,0
2018-02-13T02:26:12.672Z,0
2018-02-13T02:27:13.236Z,0
2018-02-13T02:28:13.808Z,0
2018-02-13T02:29:14.384Z,0
2018-02-13T02:30:14.950Z,0
2018-02-13T02:31:15.516Z,0
2018-02-13T02:32:16.080Z,0
2018-02-13T02:33:16.645Z,0
2018-02-13T02:34:17.209Z,0
2018-02-13T02:35:17.774Z,0
2018-02-13T02:36:18.338Z,0
2018-02-13T02:37:18.904Z,0
2018-02-13T02:38:19.472Z,0
2018-02-13T02:39:20.037Z,0
2018-02-13T02:40:20.602Z,0
2018-02-13T02:41:21.167Z,0
2018-02-13T02:42:21.732Z,0
2018-02-13T02:43:22.297Z,0
2018-02-13T02:44:22.863Z,0
2018-02-13T02:45:23.430Z,0
2018-02-13T02:46:23.994Z,0
2018-02-13T02:47:24.558Z,0
2018-02-13T02:48:25.122Z,0
2018-02-13T02:49:25.687Z,0
2018-02-13T02:50:26.252Z,0
2018-02-13T02:51:26.818Z,0
2018-02-13T02:52:27.384Z,0
2018-02-13T02:53:27.949Z,0
2018-02-13T02:54:28.532Z,0
2018-02-13T02:55:29.096Z,0
2018-02-13T02:56:29.660Z,0
2018-02-13T02:57:30.224Z,0
2018-02-13T02:58:30.789Z,0
2018-02-13T02:59:31.354Z,0
2018-02-13T03:00:31.921Z,0
2018-02-13T03:01:32.485Z,0
2018-02-13T03:02:33.054Z,0
2018-02-13T03:03:33.617Z,0
2018-02-13T03:04:34.182Z,0
2018-02-13T03:05:34.747Z,0
2018-02-13T03:06:35.312Z,0
2018-02-13T03:07:35.877Z,0
2018-02-13T03:08:36.456Z,0
2018-02-13T03:09:37.022Z,0
2018-02-13T03:10:37.588Z,0
2018-02-13T03:11:38.154Z,0
2018-02-13T03:12:38.720Z,0
2018-02-13T03:13:39.283Z,0
2018-02-13T03:14:39.849Z,0
2018-02-13T03:15:40.415Z,0
2018-02-13T03:16:40.981Z,0
2018-02-13T03:17:41.560Z,0
2018-02-13T03:18:42.137Z,0
2018-02-13T03:19:42.702Z,0
2018-02-13T03:20:43.267Z,0
2018-02-13T03:21:43.836Z,0
2018-02-13T03:22:44.399Z,0
2018-02-13T03:23:44.966Z,0
2018-02-13T03:24:45.530Z,0
2018-02-13T03:25:46.152Z,0
2018-02-13T03:26:46.658Z,0
2018-02-13T03:27:47.237Z,0
2018-02-13T03:28:47.808Z,0
2018-02-13T03:29:48.366Z,0
2018-02-13T03:30:48.930Z,0
2018-02-13T03:31:49.494Z,0
2018-02-13T03:32:50.059Z,0
2018-02-13T03:33:50.636Z,0
2018-02-13T03:34:51.203Z,0
2018-02-13T03:35:51.780Z,0
2018-02-13T03:36:52.345Z,0
2018-02-13T03:37:52.909Z,0
2018-02-13T03:38:53.476Z,0
2018-02-13T03:39:54.042Z,0
2018-02-13T03:40:54.607Z,0
2018-02-13T03:41:55.173Z,0
2018-02-13T03:42:55.738Z,0
2018-02-13T03:43:56.302Z,0
2018-02-13T03:44:56.915Z,0
2018-02-13T03:45:57.480Z,0
2018-02-13T03:46:58.047Z,0
2018-02-13T03:47:58.612Z,0
2018-02-13T03:48:59.175Z,0
2018-02-13T03:49:59.739Z,0
2018-02-13T03:51:00.306Z,0
2018-02-13T03:52:00.872Z,0
2018-02-13T03:53:01.438Z,0
2018-02-13T03:54:02.004Z,0
2018-02-13T03:55:02.586Z,0
2018-02-13T03:56:03.163Z,0
2018-02-13T03:57:03.727Z,0
2018-02-13T03:58:04.295Z,0
2018-02-13T03:59:04.860Z,0
2018-02-13T04:00:05.426Z,0
2018-02-13T04:01:05.994Z,0
2018-02-13T04:02:06.555Z,0
2018-02-13T04:03:07.120Z,0
2018-02-13T04:04:07.685Z,0
2018-02-13T04:05:08.252Z,0
2018-02-13T04:06:08.817Z,0
2018-02-13T04:07:09.395Z,0
2018-02-13T04:08:09.973Z,0
2018-02-13T04:09:10.541Z,0
2018-02-13T04:10:11.104Z,0
2018-02-13T04:11:11.668Z,0
2018-02-13T04:12:12.233Z,0
2018-02-13T04:13:12.799Z,0
2018-02-13T04:14:13.363Z,0
2018-02-13T04:15:13.929Z,0
2018-02-13T04:16:14.497Z,0
2018-02-13T04:17:15.077Z,0
2018-02-13T04:18:15.642Z,0
2018-02-13T04:19:16.207Z,0
2018-02-13T04:20:16.771Z,0
2018-02-13T04:21:17.336Z,0
2018-02-13T04:22:17.900Z,0
2018-02-13T04:23:18.465Z,0
2018-02-13T04:24:19.031Z,0
2018-02-13T04:25:19.596Z,0
2018-02-13T04:26:20.163Z,0
2018-02-13T04:27:20.727Z,0
2018-02-13T04:28:21.293Z,0
2018-02-13T04:29:21.857Z,0
2018-02-13T04:30:22.422Z,0
2018-02-13T04:31:22.988Z,0
2018-02-13T04:32:23.553Z,0
2018-02-13T04:33:24.120Z,0
2018-02-13T04:34:24.685Z,0
2018-02-13T04:35:25.250Z,0
2018-02-13T04:36:25.816Z,0
2018-02-13T04:37:26.379Z,0
2018-02-13T04:38:26.950Z,0
2018-02-13T04:39:27.510Z,0
2018-02-13T04:40:28.078Z,0
2018-02-13T04:41:28.642Z,0
2018-02-13T04:42:29.207Z,0
2018-02-13T04:43:29.772Z,0
2018-02-13T04:44:30.337Z,0
2018-02-13T04:45:30.906Z,0
2018-02-13T04:46:31.483Z,0
2018-02-13T04:47:32.051Z,0
2018-02-13T04:48:32.627Z,0
2018-02-13T04:49:33.206Z,0
2018-02-13T04:50:33.771Z,0
2018-02-13T04:51:34.338Z,0
2018-02-13T04:52:34.916Z,0
2018-02-13T04:53:35.481Z,0
2018-02-13T04:54:36.047Z,0
2018-02-13T04:55:36.613Z,0
2018-02-13T04:56:37.177Z,0
2018-02-13T04:57:37.744Z,0
2018-02-13T04:58:38.323Z,0
2018-02-13T04:59:38.887Z,0
2018-02-13T05:00:39.452Z,0
2018-02-13T05:01:40.029Z,0
2018-02-13T05:02:40.606Z,0
2018-02-13T05:03:41.171Z,0
2018-02-13T05:04:41.749Z,0
2018-02-13T05:05:42.328Z,0
2018-02-13T05:06:42.894Z,0
2018-02-13T05:07:43.459Z,0
2018-02-13T05:08:44.025Z,0
2018-02-13T05:09:44.590Z,0
2018-02-13T05:10:45.156Z,0
2018-02-13T05:11:45.721Z,0
2018-02-13T05:12:46.289Z,0
2018-02-13T05:13:46.855Z,0
2018-02-13T05:14:47.422Z,0
2018-02-13T05:15:47.990Z,0
2018-02-13T05:16:48.556Z,0
2018-02-13T05:17:49.122Z,0
2018-02-13T05:18:49.691Z,0
2018-02-13T05:19:50.255Z,0
2018-02-13T05:20:50.821Z,0
2018-02-13T05:21:51.387Z,0
2018-02-13T05:22:51.955Z,0
2018-02-13T05:23:52.521Z,0
2018-02-13T05:24:53.086Z,0
2018-02-13T05:25:53.653Z,0
2018-02-13T05:26:54.218Z,0
2018-02-13T05:27:54.799Z,0
2018-02-13T05:28:55.365Z,0
2018-02-13T05:29:55.930Z,0
2018-02-13T05:30:56.497Z,0
2018-02-13T05:31:57.065Z,0
2018-02-13T05:32:57.631Z,0
2018-02-13T05:33:58.197Z,0
2018-02-13T05:34:58.766Z,0
2018-02-13T05:35:59.333Z,0
2018-02-13T05:36:59.900Z,0
2018-02-13T05:38:00.465Z,0
2018-02-13T05:39:01.031Z,0
2018-02-13T05:40:01.599Z,0
2018-02-13T05:41:02.164Z,0
2018-02-13T05:42:02.731Z,0
2018-02-13T05:43:03.298Z,0
2018-02-13T05:44:03.866Z,0
2018-02-13T05:45:04.433Z,0
2018-02-13T05:46:04.998Z,0
2018-02-13T05:47:05.578Z,0
2018-02-13T05:48:06.149Z,0
2018-02-13T05:49:06.713Z,0
2018-02-13T05:50:07.278Z,0
2018-02-13T05:51:07.845Z,0
2018-02-13T05:52:08.411Z,0
2018-02-13T05:53:08.978Z,0
2018-02-13T05:54:09.543Z,0
2018-02-13T05:55:10.109Z,0
2018-02-13T05:56:10.687Z,0
2018-02-13T05:57:11.252Z,0
2018-02-13T05:58:11.819Z,0
2018-02-13T05:59:12.385Z,0
2018-02-13T06:00:12.952Z,0
2018-02-13T06:01:13.520Z,0
2018-02-13T06:02:14.085Z,0
2018-02-13T06:03:14.651Z,0
2018-02-13T06:04:15.219Z,0
2018-02-13T06:05:15.785Z,0
2018-02-13T06:06:16.351Z,0
2018-02-13T06:07:16.917Z,0
2018-02-13T06:08:17.483Z,0
2018-02-13T06:09:18.051Z,0
2018-02-13T06:10:18.616Z,0
2018-02-13T06:11:19.196Z,0
2018-02-13T06:12:19.763Z,0
2018-02-13T06:13:20.328Z,0
2018-02-13T06:14:20.894Z,0
2018-02-13T06:15:21.464Z,0
2018-02-13T06:16:22.028Z,0
2018-02-13T06:17:22.598Z,0
2018-02-13T06:18:23.161Z,0
2018-02-13T06:19:23.727Z,0
2018-02-13T06:20:24.295Z,0
2018-02-13T06:21:24.860Z,0
2018-02-13T06:22:25.428Z,0
2018-02-13T06:23:25.992Z,0
2018-02-13T06:24:26.562Z,0
2018-02-13T06:25:27.128Z,0
2018-02-13T06:26:27.697Z,0
2018-02-13T06:27:28.271Z,0
2018-02-13T06:28:28.824Z,4
2018-02-13T06:29:29.390Z,0
2018-02-13T06:30:29.958Z,0
2018-02-13T06:31:30.524Z,4
2018-02-13T06:32:31.090Z,0
2018-02-13T06:33:31.655Z,0
2018-02-13T06:34:32.258Z,4
2018-02-13T06:35:32.791Z,4
2018-02-13T06:36:33.372Z,0
2018-02-13T06:37:33.942Z,4
2018-02-13T06:38:34.504Z,4
2018-02-13T06:39:35.070Z,4
2018-02-13T06:40:35.675Z,8
2018-02-13T06:41:36.204Z,8
2018-02-13T06:42:36.784Z,8
2018-02-13T06:43:37.349Z,8
2018-02-13T06:44:37.917Z,12
2018-02-13T06:45:38.483Z,12
2018-02-13T06:46:39.049Z,12
2018-02-13T06:47:39.658Z,12
2018-02-13T06:48:40.184Z,16
2018-02-13T06:49:40.751Z,20
2018-02-13T06:50:41.317Z,20
2018-02-13T06:51:41.885Z,24
2018-02-13T06:52:42.453Z,24
2018-02-13T06:53:43.019Z,28
2018-02-13T06:54:43.586Z,28
2018-02-13T06:55:44.155Z,28
2018-02-13T06:56:44.725Z,36
2018-02-13T06:57:45.289Z,36
2018-02-13T06:58:45.855Z,40
2018-02-13T06:59:46.423Z,40
2018-02-13T07:00:46.991Z,44
2018-02-13T07:01:47.558Z,48
2018-02-13T07:02:48.123Z,52
2018-02-13T07:03:48.692Z,56
2018-02-13T07:04:49.258Z,60
2018-02-13T07:05:49.825Z,60
2018-02-13T07:06:50.406Z,68
2018-02-13T07:07:50.973Z,68
2018-02-13T07:08:51.541Z,72
2018-02-13T07:09:52.108Z,76
2018-02-13T07:10:52.674Z,80
2018-02-13T07:11:53.241Z,84
2018-02-13T07:12:53.807Z,88
2018-02-13T07:13:54.376Z,92
2018-02-13T07:14:54.944Z,96
2018-02-13T07:15:55.527Z,100
2018-02-13T07:16:56.094Z,104
2018-02-13T07:17:56.662Z,104
2018-02-13T07:18:57.232Z,108
2018-02-13T07:19:57.799Z,116
2018-02-13T07:20:58.367Z,116
2018-02-13T07:21:58.936Z,120
2018-02-13T07:22:59.504Z,128
2018-02-13T07:24:00.071Z,128
2018-02-13T07:25:00.638Z,128
2018-02-13T07:26:01.208Z,136
2018-02-13T07:27:01.778Z,136
2018-02-13T07:28:02.346Z,140
2018-02-13T07:29:02.914Z,144
2018-02-13T07:30:03.483Z,148
2018-02-13T07:31:04.053Z,148
2018-02-13T07:32:04.621Z,152
2018-02-13T07:33:05.191Z,160
2018-02-13T07:34:05.759Z,160
2018-02-13T07:35:06.328Z,164
2018-02-13T07:36:06.897Z,172
2018-02-13T07:37:07.465Z,172
2018-02-13T07:38:08.034Z,176
2018-02-13T07:39:08.613Z,180
2018-02-13T07:40:09.194Z,184
2018-02-13T07:41:09.762Z,188
2018-02-13T07:42:10.330Z,192
2018-02-13T07:43:10.910Z,196
2018-02-13T07:44:11.479Z,196
2018-02-13T07:45:12.045Z,196
2018-02-13T07:46:12.612Z,200
2018-02-13T07:47:13.180Z,204
2018-02-13T07:48:13.748Z,208
2018-02-13T07:49:14.316Z,208
2018-02-13T07:50:14.897Z,212
2018-02-13T07:51:15.479Z,216
2018-02-13T07:52:16.046Z,216
2018-02-13T07:53:16.615Z,220
2018-02-13T07:54:17.186Z,220
2018-02-13T07:55:17.768Z,224
2018-02-13T07:56:18.336Z,224
2018-02-13T07:57:18.904Z,228
2018-02-13T07:58:19.484Z,232
2018-02-13T07:59:20.055Z,236
2018-02-13T08:00:20.624Z,236
2018-02-13T08:01:21.191Z,240
2018-02-13T08:02:21.762Z,244
2018-02-13T08:03:22.338Z,244
2018-02-13T08:04:22.899Z,244
2018-02-13T08:05:23.467Z,248
2018-02-13T08:06:24.036Z,248
2018-02-13T08:07:24.604Z,252
2018-02-13T08:08:25.173Z,252
2018-02-13T08:09:25.741Z,256
2018-02-13T08:10:26.310Z,260
2018-02-13T08:11:26.879Z,260
2018-02-13T08:12:27.448Z,264
2018-02-13T08:13:28.017Z,264
2018-02-13T08:14:28.584Z,268
2018-02-13T08:15:29.151Z,268
2018-02-13T08:16:29.722Z,268
2018-02-13T08:17:30.291Z,272
2018-02-13T08:18:30.858Z,272
2018-02-13T08:19:31.430Z,276
2018-02-13T08:20:31.998Z,276
2018-02-13T08:21:32.567Z,276
2018-02-13T08:22:33.138Z,280
2018-02-13T08:23:33.721Z,284
2018-02-13T08:24:34.290Z,284
2018-02-13T08:25:34.859Z,288
2018-02-13T08:26:35.430Z,288
2018-02-13T08:27:35.997Z,292
2018-02-13T08:28:36.566Z,292
2018-02-13T08:29:37.132Z,296
2018-02-13T08:30:37.701Z,296
2018-02-13T08:31:38.272Z,296
2018-02-13T08:32:38.841Z,300
2018-02-13T08:33:39.410Z,304
2018-02-13T08:34:39.980Z,300
2018-02-13T08:35:40.548Z,304
2018-02-13T08:36:41.117Z,304
2018-02-13T08:37:41.687Z,308
2018-02-13T08:38:42.255Z,308
2018-02-13T08:39:42.851Z,312
2018-02-13T08:40:43.394Z,312
2018-02-13T08:41:43.962Z,312
2018-02-13T08:42:44.531Z,312
2018-02-13T08:43:45.101Z,316
2018-02-13T08:44:45.671Z,320
2018-02-13T08:45:46.239Z,320
2018-02-13T08:46:46.810Z,320
2018-02-13T08:47:47.379Z,320
2018-02-13T08:48:47.947Z,324
2018-02-13T08:49:48.517Z,324
2018-02-13T08:50:49.085Z,324
2018-02-13T08:51:49.656Z,328
2018-02-13T08:52:50.222Z,332
2018-02-13T08:53:50.794Z,332
2018-02-13T08:54:51.361Z,332
2018-02-13T08:55:51.930Z,332
2018-02-13T08:56:52.499Z,332
2018-02-13T08:57:53.070Z,336
2018-02-13T08:58:53.639Z,336
2018-02-13T08:59:54.209Z,336
2018-02-13T09:00:54.780Z,336
2018-02-13T09:01:55.349Z,340
2018-02-13T09:02:55.919Z,340
2018-02-13T09:03:56.491Z,340
2018-02-13T09:04:57.063Z,340
2018-02-13T09:05:57.630Z,344
2018-02-13T09:06:58.201Z,344
2018-02-13T09:07:58.769Z,344
2018-02-13T09:08:59.340Z,348
2018-02-13T09:09:59.911Z,348
2018-02-13T09:11:00.479Z,352
2018-02-13T09:12:01.049Z,352
2018-02-13T09:13:01.620Z,352
2018-02-13T09:14:02.189Z,352
2018-02-13T09:15:02.758Z,352
2018-02-13T09:16:03.329Z,352
2018-02-13T09:17:03.898Z,352
2018-02-13T09:18:04.481Z,356
2018-02-13T09:19:05.051Z,356
2018-02-13T09:20:05.621Z,356
2018-02-13T09:21:06.190Z,356
2018-02-13T09:22:06.760Z,360
2018-02-13T09:23:07.342Z,360
2018-02-13T09:24:07.926Z,360
2018-02-13T09:25:08.495Z,364
2018-02-13T09:26:09.065Z,360
2018-02-13T09:27:09.634Z,364
2018-02-13T09:28:10.217Z,364
2018-02-13T09:29:10.786Z,368
2018-02-13T09:30:11.357Z,368
2018-02-13T09:31:11.928Z,372
2018-02-13T09:32:12.496Z,368
2018-02-13T09:33:13.067Z,372
2018-02-13T09:34:13.655Z,372
2018-02-13T09:35:14.223Z,372
2018-02-13T09:36:14.792Z,372
2018-02-13T09:37:15.377Z,376
2018-02-13T09:38:15.947Z,372
2018-02-13T09:39:16.518Z,376
2018-02-13T09:40:17.110Z,376
2018-02-13T09:41:17.672Z,376
2018-02-13T09:42:18.241Z,376
2018-02-13T09:43:18.812Z,376
2018-02-13T09:44:19.388Z,376
2018-02-13T09:45:19.966Z,376
2018-02-13T09:46:20.536Z,380
2018-02-13T09:47:21.107Z,380
2018-02-13T09:48:21.691Z,380
2018-02-13T09:49:22.268Z,384
2018-02-13T09:50:22.829Z,384
2018-02-13T09:51:23.398Z,384
2018-02-13T09:52:23.970Z,384
2018-02-13T09:53:24.540Z,376
2018-02-13T09:54:25.109Z,380
2018-02-13T09:55:25.680Z,376
2018-02-13T09:56:26.251Z,376
2018-02-13T09:57:26.820Z,376
2018-02-13T09:58:27.389Z,380
2018-02-13T09:59:27.961Z,380
2018-02-13T10:00:28.530Z,384
2018-02-13T10:01:29.101Z,384
2018-02-13T10:02:29.673Z,384
2018-02-13T10:03:30.243Z,388
2018-02-13T10:04:30.814Z,388
2018-02-13T10:05:31.436Z,388
2018-02-13T10:06:31.954Z,388
2018-02-13T10:07:32.522Z,388
2018-02-13T10:08:33.150Z,392
2018-02-13T10:09:33.677Z,392
2018-02-13T10:10:34.246Z,392
2018-02-13T10:11:34.816Z,392
2018-02-13T10:12:35.385Z,392
2018-02-13T10:13:35.955Z,392
2018-02-13T10:14:36.526Z,396
2018-02-13T10:15:37.096Z,392
2018-02-13T10:16:37.668Z,400
2018-02-13T10:17:38.241Z,396
2018-02-13T10:18:38.809Z,400
2018-02-13T10:19:39.381Z,400
2018-02-13T10:20:39.953Z,404
2018-02-13T10:21:40.523Z,404
2018-02-13T10:22:41.094Z,404
2018-02-13T10:23:41.666Z,404
2018-02-13T10:24:42.235Z,404
2018-02-13T10:25:42.806Z,404
2018-02-13T10:26:43.378Z,404
2018-02-13T10:27:43.966Z,408
2018-02-13T10:28:44.534Z,408
2018-02-13T10:29:45.104Z,408
2018-02-13T10:30:45.675Z,408
2018-02-13T10:31:46.245Z,412
2018-02-13T10:32:46.817Z,408
2018-02-13T10:33:47.400Z,412
2018-02-13T10:34:47.972Z,408
2018-02-13T10:35:48.585Z,412
2018-02-13T10:36:49.114Z,412
2018-02-13T10:37:49.686Z,412
2018-02-13T10:38:50.258Z,416
2018-02-13T10:39:50.826Z,416
2018-02-13T10:40:51.398Z,416
2018-02-13T10:41:51.968Z,420
2018-02-13T10:42:52.553Z,416
2018-02-13T10:43:53.123Z,420
2018-02-13T10:44:53.693Z,416
2018-02-13T10:45:54.263Z,420
2018-02-13T10:46:54.836Z,420
2018-02-13T10:47:55.406Z,424
2018-02-13T10:48:55.977Z,420
2018-02-13T10:49:56.551Z,424
2018-02-13T10:50:57.120Z,424
2018-02-13T10:51:57.690Z,420
2018-02-13T10:52:58.263Z,424
2018-02-13T10:53:58.832Z,424
2018-02-13T10:54:59.406Z,424
2018-02-13T10:55:59.976Z,428
2018-02-13T10:57:00.547Z,428
2018-02-13T10:58:01.117Z,428
2018-02-13T10:59:01.689Z,428
2018-02-13T11:00:02.259Z,428
2018-02-13T11:01:02.832Z,432
2018-02-13T11:02:03.412Z,428
2018-02-13T11:03:03.981Z,428
2018-02-13T11:04:04.552Z,428
2018-02-13T11:05:05.128Z,432
2018-02-13T11:06:05.696Z,432
2018-02-13T11:07:06.267Z,432
2018-02-13T11:08:06.839Z,436
2018-02-13T11:09:07.408Z,432
2018-02-13T11:10:07.980Z,432
2018-02-13T11:11:08.554Z,436
2018-02-13T11:12:09.123Z,432
2018-02-13T11:13:09.693Z,432
2018-02-13T11:14:10.265Z,432
2018-02-13T11:15:10.849Z,436
2018-02-13T11:16:11.419Z,440
2018-02-13T11:17:11.990Z,436
2018-02-13T11:18:12.559Z,436
2018-02-13T11:19:13.131Z,436
2018-02-13T11:20:13.705Z,436
2018-02-13T11:21:14.274Z,436
2018-02-13T11:22:14.845Z,440
2018-02-13T11:23:15.417Z,436
2018-02-13T11:24:15.988Z,436
2018-02-13T11:25:16.560Z,440
2018-02-13T11:26:17.138Z,436
2018-02-13T11:27:17.702Z,440
2018-02-13T11:28:18.273Z,440
2018-02-13T11:29:18.846Z,440
2018-02-13T11:30:19.417Z,440
2018-02-13T11:31:19.989Z,440
2018-02-13T11:32:20.561Z,444
2018-02-13T11:33:21.132Z,444
2018-02-13T11:34:21.708Z,448
2018-02-13T11:35:22.279Z,444
2018-02-13T11:36:22.848Z,440
2018-02-13T11:37:23.431Z,444
2018-02-13T11:38:24.001Z,444
2018-02-13T11:39:24.572Z,444
2018-02-13T11:40:25.142Z,444
2018-02-13T11:41:25.715Z,444
2018-02-13T11:42:26.285Z,448
2018-02-13T11:43:26.857Z,444
2018-02-13T11:44:27.433Z,456
2018-02-13T11:45:28.017Z,464
2018-02-13T11:46:28.587Z,468
2018-02-13T11:47:29.159Z,468
2018-02-13T11:48:29.733Z,440
2018-02-13T11:49:30.304Z,484
2018-02-13T11:50:30.914Z,480
2018-02-13T11:51:31.450Z,472
2018-02-13T11:52:32.022Z,488
2018-02-13T11:53:32.596Z,504
2018-02-13T11:54:33.181Z,528
2018-02-13T11:55:33.754Z,500
2018-02-13T11:56:34.326Z,504
2018-02-13T11:57:34.899Z,524
2018-02-13T11:58:35.471Z,504
2018-02-13T11:59:36.043Z,496
2018-02-13T12:00:36.630Z,464
2018-02-13T12:01:37.203Z,460
2018-02-13T12:02:37.777Z,412
2018-02-13T12:03:38.348Z,320
2018-02-13T12:04:38.921Z,444
2018-02-13T12:05:39.505Z,452
2018-02-13T12:06:40.078Z,452
2018-02-13T12:07:40.649Z,452
2018-02-13T12:08:41.219Z,348
2018-02-13T12:09:41.793Z,444
2018-02-13T12:10:42.378Z,460
2018-02-13T12:11:42.949Z,456
2018-02-13T12:12:43.519Z,460
2018-02-13T12:13:44.091Z,456
2018-02-13T12:14:44.662Z,456
2018-02-13T12:15:45.234Z,448
2018-02-13T12:16:45.805Z,448
2018-02-13T12:17:46.378Z,444
2018-02-13T12:18:46.951Z,444
2018-02-13T12:19:47.524Z,444
2018-02-13T12:20:48.095Z,452
2018-02-13T12:21:48.669Z,456
2018-02-13T12:22:49.239Z,324
2018-02-13T12:23:49.826Z,456
2018-02-13T12:24:50.397Z,464
2018-02-13T12:25:50.983Z,468
2018-02-13T12:26:51.556Z,460
2018-02-13T12:27:52.128Z,452
2018-02-13T12:28:52.700Z,456
2018-02-13T12:29:53.274Z,452
2018-02-13T12:30:53.845Z,460
2018-02-13T12:31:54.416Z,456
2018-02-13T12:32:55.001Z,460
2018-02-13T12:34:39.770Z,460
2018-02-13T12:35:40.348Z,468
2018-02-13T12:36:40.916Z,464
2018-02-13T12:37:41.487Z,464
2018-02-13T12:38:42.059Z,460
2018-02-13T12:39:42.631Z,348
2018-02-13T12:40:43.202Z,316
2018-02-13T12:41:43.773Z,364
2018-02-13T12:42:44.345Z,476
2018-02-13T12:43:44.919Z,480
2018-02-13T12:44:45.490Z,448
2018-02-13T12:45:46.060Z,508
2018-02-13T12:46:46.632Z,516
2018-02-13T12:47:47.208Z,512
2018-02-13T12:48:47.774Z,508
2018-02-13T12:49:48.346Z,508
2018-02-13T12:50:48.918Z,484
2018-02-13T12:51:49.490Z,376
2018-02-13T12:52:50.061Z,380
2018-02-13T12:53:50.634Z,380
2018-02-13T12:54:51.206Z,412
2018-02-13T12:55:51.792Z,424
2018-02-13T12:56:52.365Z,448
2018-02-13T12:57:52.940Z,512
2018-02-13T12:58:53.509Z,508
2018-02-13T12:59:54.080Z,508
2018-02-13T13:00:54.655Z,492
2018-02-13T13:01:55.224Z,444
2018-02-13T13:02:55.796Z,452
2018-02-13T13:03:56.367Z,500
2018-02-13T13:04:56.941Z,468
2018-02-13T13:05:57.513Z,396
2018-02-13T13:06:58.085Z,400
2018-02-13T13:07:58.656Z,468
2018-02-13T13:08:59.243Z,468
2018-02-13T13:09:59.817Z,532
2018-02-13T13:11:00.387Z,540
2018-02-13T13:12:00.961Z,552
2018-02-13T13:13:01.539Z,428
2018-02-13T13:14:02.107Z,432
2018-02-13T13:15:02.694Z,548
2018-02-13T13:16:03.266Z,536
2018-02-13T13:17:03.838Z,540
2018-02-13T13:18:04.411Z,528
2018-02-13T13:19:04.998Z,568
2018-02-13T13:20:05.571Z,552
2018-02-13T13:21:06.147Z,580
2018-02-13T13:22:06.717Z,484
2018-02-13T13:23:07.290Z,480
2018-02-13T13:24:07.864Z,440
2018-02-13T13:25:08.434Z,416
2018-02-13T13:26:09.018Z,400
2018-02-13T13:27:09.579Z,380
2018-02-13T13:28:10.150Z,372
2018-02-13T13:29:10.722Z,384
2018-02-13T13:30:11.296Z,404
2018-02-13T13:31:12.175Z,444
2018-02-13T13:32:12.689Z,536
2018-02-13T13:33:13.261Z,632
2018-02-13T13:34:13.847Z,632
2018-02-13T13:35:14.433Z,612
2018-02-13T13:36:15.006Z,584
2018-02-13T13:37:15.578Z,500
2018-02-13T13:38:16.149Z,544
2018-02-13T13:39:16.721Z,544
2018-02-13T13:40:17.296Z,532
2018-02-13T13:41:17.868Z,532
2018-02-13T13:42:18.440Z,540
2018-02-13T13:43:19.014Z,556
2018-02-13T13:44:19.587Z,580
2018-02-13T13:45:20.159Z,588
2018-02-13T13:46:20.735Z,516
2018-02-13T13:47:21.303Z,488
2018-02-13T13:48:21.876Z,556
2018-02-13T13:49:22.449Z,560
2018-02-13T13:50:23.020Z,564
2018-02-13T13:51:23.592Z,576
2018-02-13T13:52:24.166Z,500
2018-02-13T13:53:24.761Z,504
2018-02-13T13:54:25.323Z,564
2018-02-13T13:55:25.895Z,584
2018-02-13T13:56:26.469Z,592
2018-02-13T13:57:27.041Z,624
2018-02-13T13:58:27.612Z,564
2018-02-13T13:59:28.183Z,492
2018-02-13T14:00:28.756Z,464
2018-02-13T14:01:29.328Z,564
2018-02-13T14:02:29.899Z,480
2018-02-13T14:03:30.473Z,412
2018-02-13T14:04:31.046Z,400
2018-02-13T14:05:31.618Z,488
2018-02-13T14:06:32.190Z,396
2018-02-13T14:07:32.764Z,392
2018-02-13T14:08:33.335Z,500
2018-02-13T14:09:33.909Z,516
2018-02-13T14:10:34.482Z,512
2018-02-13T14:11:35.058Z,464
2018-02-13T14:12:35.624Z,392
2018-02-13T14:13:36.197Z,372
2018-02-13T14:14:36.770Z,356
2018-02-13T14:15:37.341Z,452
2018-02-13T14:16:37.913Z,392
2018-02-13T14:17:38.491Z,376
2018-02-13T14:18:39.058Z,396
2018-02-13T14:19:39.628Z,424
2018-02-13T14:20:40.201Z,428
2018-02-13T14:21:40.773Z,404
2018-02-13T14:22:41.346Z,384
2018-02-13T14:23:41.917Z,372